sensor_id;sensor_type;location;lat;lon;timestamp;P1;durP1;ratioP1;P2;durP2;ratioP2
8654;SDS011;13500;52.514;13.462;2022-07-23T00:00:35;5.17;;;3.90;;
8654;SDS011;13500;52.514;13.462;2022-07-23T00:03:05;4.73;;;4.30;;
8654;SDS011;13500;52.514;13.462;2022-07-23T00:05:33;5.07;;;4.00;;
8654;SDS011;13500;52.514;13.462;2022-07-23T00:08:03;4.97;;;4.30;;
8654;SDS011;13500;52.514;13.462;2022-07-23T00:10:39;6.27;;;4.13;;
8654;SDS011;13500;52.514;13.462;2022-07-23T00:13:08;4.87;;;4.07;;
8654;SDS011;13500;52.514;13.462;2022-07-23T00:15:37;4.07;;;3.67;;
8654;SDS011;13500;52.514;13.462;2022-07-23T00:18:06;4.53;;;3.90;;
8654;SDS011;13500;52.514;13.462;2022-07-23T00:20:34;4.07;;;3.70;;
8654;SDS011;13500;52.514;13.462;2022-07-23T00:23:02;4.87;;;3.90;;
8654;SDS011;13500;52.514;13.462;2022-07-23T00:25:30;5.13;;;3.80;;
8654;SDS011;13500;52.514;13.462;2022-07-23T00:27:58;4.80;;;4.00;;
8654;SDS011;13500;52.514;13.462;2022-07-23T00:30:28;4.70;;;3.80;;
8654;SDS011;13500;52.514;13.462;2022-07-23T00:32:59;4.73;;;4.17;;
8654;SDS011;13500;52.514;13.462;2022-07-23T00:35:30;4.63;;;3.70;;
8654;SDS011;13500;52.514;13.462;2022-07-23T00:38:00;5.10;;;4.00;;
8654;SDS011;13500;52.514;13.462;2022-07-23T00:40:29;4.63;;;4.13;;
8654;SDS011;13500;52.514;13.462;2022-07-23T00:42:58;4.50;;;4.10;;
8654;SDS011;13500;52.514;13.462;2022-07-23T00:45:26;3.90;;;3.47;;
8654;SDS011;13500;52.514;13.462;2022-07-23T00:47:55;3.87;;;3.47;;
8654;SDS011;13500;52.514;13.462;2022-07-23T00:50:25;5.73;;;3.60;;
8654;SDS011;13500;52.514;13.462;2022-07-23T00:52:54;5.13;;;3.60;;
8654;SDS011;13500;52.514;13.462;2022-07-23T00:55:23;4.57;;;3.77;;
8654;SDS011;13500;52.514;13.462;2022-07-23T00:57:51;4.73;;;3.50;;
8654;SDS011;13500;52.514;13.462;2022-07-23T01:00:21;4.37;;;3.57;;
8654;SDS011;13500;52.514;13.462;2022-07-23T01:02:49;4.10;;;3.70;;
8654;SDS011;13500;52.514;13.462;2022-07-23T01:05:18;4.83;;;3.63;;
8654;SDS011;13500;52.514;13.462;2022-07-23T01:07:50;5.63;;;3.90;;
8654;SDS011;13500;52.514;13.462;2022-07-23T01:10:22;4.87;;;3.70;;
8654;SDS011;13500;52.514;13.462;2022-07-23T01:13:01;5.33;;;3.97;;
8654;SDS011;13500;52.514;13.462;2022-07-23T01:15:30;3.73;;;3.43;;
8654;SDS011;13500;52.514;13.462;2022-07-23T01:17:59;4.30;;;3.70;;
8654;SDS011;13500;52.514;13.462;2022-07-23T01:20:28;5.77;;;3.90;;
8654;SDS011;13500;52.514;13.462;2022-07-23T01:22:58;4.93;;;3.83;;
8654;SDS011;13500;52.514;13.462;2022-07-23T01:25:26;5.20;;;3.80;;
8654;SDS011;13500;52.514;13.462;2022-07-23T01:28:00;3.97;;;3.67;;
8654;SDS011;13500;52.514;13.462;2022-07-23T01:30:29;5.07;;;4.10;;
8654;SDS011;13500;52.514;13.462;2022-07-23T01:32:58;4.63;;;4.10;;
8654;SDS011;13500;52.514;13.462;2022-07-23T01:35:26;4.70;;;4.00;;
8654;SDS011;13500;52.514;13.462;2022-07-23T01:38:00;4.90;;;3.90;;
8654;SDS011;13500;52.514;13.462;2022-07-23T01:40:28;5.83;;;4.33;;
8654;SDS011;13500;52.514;13.462;2022-07-23T01:42:57;4.47;;;4.00;;
8654;SDS011;13500;52.514;13.462;2022-07-23T01:45:27;4.60;;;4.20;;
8654;SDS011;13500;52.514;13.462;2022-07-23T01:47:55;4.30;;;3.90;;
8654;SDS011;13500;52.514;13.462;2022-07-23T01:50:23;4.83;;;4.33;;
8654;SDS011;13500;52.514;13.462;2022-07-23T01:53:13;5.00;;;4.50;;
8654;SDS011;13500;52.514;13.462;2022-07-23T01:55:42;4.63;;;4.20;;
8654;SDS011;13500;52.514;13.462;2022-07-23T01:58:10;6.70;;;4.47;;
8654;SDS011;13500;52.514;13.462;2022-07-23T02:00:39;6.07;;;4.40;;
8654;SDS011;13500;52.514;13.462;2022-07-23T02:03:07;4.53;;;4.10;;
8654;SDS011;13500;52.514;13.462;2022-07-23T02:05:36;4.80;;;4.40;;
8654;SDS011;13500;52.514;13.462;2022-07-23T02:08:04;4.77;;;4.37;;
8654;SDS011;13500;52.514;13.462;2022-07-23T02:10:36;4.70;;;4.03;;
8654;SDS011;13500;52.514;13.462;2022-07-23T02:13:04;4.40;;;4.00;;
8654;SDS011;13500;52.514;13.462;2022-07-23T02:15:33;4.47;;;3.83;;
8654;SDS011;13500;52.514;13.462;2022-07-23T02:18:02;5.93;;;4.20;;
8654;SDS011;13500;52.514;13.462;2022-07-23T02:20:30;5.10;;;3.77;;
8654;SDS011;13500;52.514;13.462;2022-07-23T02:22:58;4.57;;;4.10;;
8654;SDS011;13500;52.514;13.462;2022-07-23T02:25:26;4.30;;;3.90;;
8654;SDS011;13500;52.514;13.462;2022-07-23T02:28:01;4.50;;;4.10;;
8654;SDS011;13500;52.514;13.462;2022-07-23T02:30:29;4.93;;;3.80;;
8654;SDS011;13500;52.514;13.462;2022-07-23T02:32:57;5.20;;;4.37;;
8654;SDS011;13500;52.514;13.462;2022-07-23T02:35:25;4.57;;;3.80;;
8654;SDS011;13500;52.514;13.462;2022-07-23T02:37:56;5.57;;;3.73;;
8654;SDS011;13500;52.514;13.462;2022-07-23T02:40:25;5.33;;;3.70;;
8654;SDS011;13500;52.514;13.462;2022-07-23T02:42:54;4.67;;;4.17;;
8654;SDS011;13500;52.514;13.462;2022-07-23T02:45:24;5.33;;;4.13;;
8654;SDS011;13500;52.514;13.462;2022-07-23T02:47:53;5.60;;;3.73;;
8654;SDS011;13500;52.514;13.462;2022-07-23T02:50:22;4.80;;;4.00;;
8654;SDS011;13500;52.514;13.462;2022-07-23T02:52:52;4.37;;;3.33;;
8654;SDS011;13500;52.514;13.462;2022-07-23T02:55:22;4.30;;;3.60;;
8654;SDS011;13500;52.514;13.462;2022-07-23T02:57:51;5.37;;;3.90;;
8654;SDS011;13500;52.514;13.462;2022-07-23T03:00:20;5.00;;;3.80;;
8654;SDS011;13500;52.514;13.462;2022-07-23T03:02:49;6.93;;;4.23;;
8654;SDS011;13500;52.514;13.462;2022-07-23T03:05:18;5.43;;;4.80;;
8654;SDS011;13500;52.514;13.462;2022-07-23T03:07:46;4.77;;;3.53;;
8654;SDS011;13500;52.514;13.462;2022-07-23T03:10:14;4.33;;;3.83;;
8654;SDS011;13500;52.514;13.462;2022-07-23T03:12:43;5.40;;;4.17;;
8654;SDS011;13500;52.514;13.462;2022-07-23T03:15:11;6.60;;;4.07;;
8654;SDS011;13500;52.514;13.462;2022-07-23T03:17:40;4.63;;;3.90;;
8654;SDS011;13500;52.514;13.462;2022-07-23T03:20:09;4.10;;;3.70;;
8654;SDS011;13500;52.514;13.462;2022-07-23T03:22:38;4.90;;;4.23;;
8654;SDS011;13500;52.514;13.462;2022-07-23T03:25:07;4.93;;;4.17;;
8654;SDS011;13500;52.514;13.462;2022-07-23T03:27:36;5.43;;;4.40;;
8654;SDS011;13500;52.514;13.462;2022-07-23T03:30:05;5.47;;;4.40;;
8654;SDS011;13500;52.514;13.462;2022-07-23T03:32:34;4.43;;;4.00;;
8654;SDS011;13500;52.514;13.462;2022-07-23T03:35:02;5.30;;;4.13;;
8654;SDS011;13500;52.514;13.462;2022-07-23T03:37:34;6.03;;;4.50;;
8654;SDS011;13500;52.514;13.462;2022-07-23T03:40:04;5.13;;;4.40;;
8654;SDS011;13500;52.514;13.462;2022-07-23T03:42:33;4.80;;;3.97;;
8654;SDS011;13500;52.514;13.462;2022-07-23T03:45:02;7.50;;;3.83;;
8654;SDS011;13500;52.514;13.462;2022-07-23T03:47:31;5.13;;;3.60;;
8654;SDS011;13500;52.514;13.462;2022-07-23T03:49:59;6.30;;;4.20;;
8654;SDS011;13500;52.514;13.462;2022-07-23T03:52:27;4.40;;;3.30;;
8654;SDS011;13500;52.514;13.462;2022-07-23T03:54:56;7.43;;;3.50;;
8654;SDS011;13500;52.514;13.462;2022-07-23T03:57:25;3.90;;;3.53;;
8654;SDS011;13500;52.514;13.462;2022-07-23T03:59:53;3.63;;;3.20;;
8654;SDS011;13500;52.514;13.462;2022-07-23T04:02:21;3.17;;;2.83;;
8654;SDS011;13500;52.514;13.462;2022-07-23T04:04:49;5.37;;;3.30;;
8654;SDS011;13500;52.514;13.462;2022-07-23T04:07:18;4.20;;;2.90;;
8654;SDS011;13500;52.514;13.462;2022-07-23T04:09:46;5.27;;;3.20;;
8654;SDS011;13500;52.514;13.462;2022-07-23T04:12:18;4.43;;;3.10;;
8654;SDS011;13500;52.514;13.462;2022-07-23T04:14:46;4.90;;;3.30;;
8654;SDS011;13500;52.514;13.462;2022-07-23T04:17:15;3.17;;;2.87;;
8654;SDS011;13500;52.514;13.462;2022-07-23T04:19:44;4.77;;;3.07;;
8654;SDS011;13500;52.514;13.462;2022-07-23T04:22:16;5.00;;;2.83;;
8654;SDS011;13500;52.514;13.462;2022-07-23T04:24:44;4.80;;;2.60;;
8654;SDS011;13500;52.514;13.462;2022-07-23T04:27:15;5.13;;;2.77;;
8654;SDS011;13500;52.514;13.462;2022-07-23T04:29:44;3.93;;;2.40;;
8654;SDS011;13500;52.514;13.462;2022-07-23T04:32:13;3.67;;;2.40;;
8654;SDS011;13500;52.514;13.462;2022-07-23T04:34:42;3.23;;;2.70;;
8654;SDS011;13500;52.514;13.462;2022-07-23T04:37:10;4.60;;;2.40;;
8654;SDS011;13500;52.514;13.462;2022-07-23T04:39:39;3.60;;;2.10;;
8654;SDS011;13500;52.514;13.462;2022-07-23T04:42:07;4.23;;;2.27;;
8654;SDS011;13500;52.514;13.462;2022-07-23T04:44:35;6.83;;;2.90;;
8654;SDS011;13500;52.514;13.462;2022-07-23T04:47:06;4.23;;;2.87;;
8654;SDS011;13500;52.514;13.462;2022-07-23T04:49:35;5.93;;;2.70;;
8654;SDS011;13500;52.514;13.462;2022-07-23T04:52:04;4.40;;;2.60;;
8654;SDS011;13500;52.514;13.462;2022-07-23T04:54:32;3.23;;;2.43;;
8654;SDS011;13500;52.514;13.462;2022-07-23T04:57:01;3.23;;;2.50;;
8654;SDS011;13500;52.514;13.462;2022-07-23T04:59:30;7.03;;;2.90;;
8654;SDS011;13500;52.514;13.462;2022-07-23T05:02:02;3.10;;;2.60;;
8654;SDS011;13500;52.514;13.462;2022-07-23T05:04:33;4.90;;;2.67;;
8654;SDS011;13500;52.514;13.462;2022-07-23T05:07:02;4.27;;;2.77;;
8654;SDS011;13500;52.514;13.462;2022-07-23T05:09:31;3.63;;;2.67;;
8654;SDS011;13500;52.514;13.462;2022-07-23T05:12:00;3.13;;;2.80;;
8654;SDS011;13500;52.514;13.462;2022-07-23T05:14:30;5.10;;;2.43;;
8654;SDS011;13500;52.514;13.462;2022-07-23T05:16:59;4.07;;;2.60;;
8654;SDS011;13500;52.514;13.462;2022-07-23T05:19:27;3.67;;;2.70;;
8654;SDS011;13500;52.514;13.462;2022-07-23T05:21:57;4.43;;;2.47;;
8654;SDS011;13500;52.514;13.462;2022-07-23T05:24:25;5.73;;;2.70;;
8654;SDS011;13500;52.514;13.462;2022-07-23T05:26:54;4.23;;;2.80;;
8654;SDS011;13500;52.514;13.462;2022-07-23T05:29:25;3.87;;;2.40;;
8654;SDS011;13500;52.514;13.462;2022-07-23T05:31:54;5.67;;;2.83;;
8654;SDS011;13500;52.514;13.462;2022-07-23T05:34:22;3.33;;;2.53;;
8654;SDS011;13500;52.514;13.462;2022-07-23T05:36:51;3.23;;;2.80;;
8654;SDS011;13500;52.514;13.462;2022-07-23T05:39:21;6.30;;;2.80;;
8654;SDS011;13500;52.514;13.462;2022-07-23T05:41:49;4.00;;;2.60;;
8654;SDS011;13500;52.514;13.462;2022-07-23T05:44:18;5.03;;;2.50;;
8654;SDS011;13500;52.514;13.462;2022-07-23T05:46:47;3.73;;;2.60;;
8654;SDS011;13500;52.514;13.462;2022-07-23T05:49:20;3.97;;;2.63;;
8654;SDS011;13500;52.514;13.462;2022-07-23T05:52:06;3.37;;;2.63;;
8654;SDS011;13500;52.514;13.462;2022-07-23T05:54:54;3.30;;;2.33;;
8654;SDS011;13500;52.514;13.462;2022-07-23T05:57:22;2.63;;;2.40;;
8654;SDS011;13500;52.514;13.462;2022-07-23T05:59:51;2.90;;;2.07;;
8654;SDS011;13500;52.514;13.462;2022-07-23T06:02:20;5.77;;;2.90;;
8654;SDS011;13500;52.514;13.462;2022-07-23T06:04:48;3.37;;;2.40;;
8654;SDS011;13500;52.514;13.462;2022-07-23T06:07:24;4.40;;;2.73;;
8654;SDS011;13500;52.514;13.462;2022-07-23T06:09:54;4.90;;;2.83;;
8654;SDS011;13500;52.514;13.462;2022-07-23T06:12:23;3.70;;;2.73;;
8654;SDS011;13500;52.514;13.462;2022-07-23T06:14:53;4.53;;;2.90;;
8654;SDS011;13500;52.514;13.462;2022-07-23T06:17:21;5.47;;;2.83;;
8654;SDS011;13500;52.514;13.462;2022-07-23T06:19:51;3.33;;;2.67;;
8654;SDS011;13500;52.514;13.462;2022-07-23T06:22:19;4.77;;;2.70;;
8654;SDS011;13500;52.514;13.462;2022-07-23T06:24:48;5.07;;;2.83;;
8654;SDS011;13500;52.514;13.462;2022-07-23T06:27:21;3.67;;;2.70;;
8654;SDS011;13500;52.514;13.462;2022-07-23T06:29:52;2.90;;;2.60;;
8654;SDS011;13500;52.514;13.462;2022-07-23T06:32:20;4.27;;;2.80;;
8654;SDS011;13500;52.514;13.462;2022-07-23T06:34:49;5.33;;;2.80;;
8654;SDS011;13500;52.514;13.462;2022-07-23T06:37:20;4.60;;;3.10;;
8654;SDS011;13500;52.514;13.462;2022-07-23T06:39:48;4.40;;;2.97;;
8654;SDS011;13500;52.514;13.462;2022-07-23T06:42:17;3.93;;;2.87;;
8654;SDS011;13500;52.514;13.462;2022-07-23T06:44:51;4.17;;;3.23;;
8654;SDS011;13500;52.514;13.462;2022-07-23T06:47:21;4.77;;;3.20;;
8654;SDS011;13500;52.514;13.462;2022-07-23T06:49:50;4.30;;;2.93;;
8654;SDS011;13500;52.514;13.462;2022-07-23T06:52:19;5.67;;;3.40;;
8654;SDS011;13500;52.514;13.462;2022-07-23T06:54:47;6.43;;;3.43;;
8654;SDS011;13500;52.514;13.462;2022-07-23T06:57:15;5.33;;;3.20;;
8654;SDS011;13500;52.514;13.462;2022-07-23T06:59:44;5.30;;;3.53;;
8654;SDS011;13500;52.514;13.462;2022-07-23T07:02:19;4.20;;;3.20;;
8654;SDS011;13500;52.514;13.462;2022-07-23T07:04:47;4.37;;;3.50;;
8654;SDS011;13500;52.514;13.462;2022-07-23T07:07:16;3.33;;;3.03;;
8654;SDS011;13500;52.514;13.462;2022-07-23T07:09:45;3.70;;;3.03;;
8654;SDS011;13500;52.514;13.462;2022-07-23T07:12:14;3.67;;;3.37;;
8654;SDS011;13500;52.514;13.462;2022-07-23T07:14:42;5.67;;;3.33;;
8654;SDS011;13500;52.514;13.462;2022-07-23T07:17:10;3.70;;;3.00;;
8654;SDS011;13500;52.514;13.462;2022-07-23T07:19:40;3.40;;;3.07;;
8654;SDS011;13500;52.514;13.462;2022-07-23T07:22:09;5.53;;;3.30;;
8654;SDS011;13500;52.514;13.462;2022-07-23T07:24:37;4.73;;;3.50;;
8654;SDS011;13500;52.514;13.462;2022-07-23T07:27:05;4.83;;;3.27;;
8654;SDS011;13500;52.514;13.462;2022-07-23T07:29:34;5.00;;;3.57;;
8654;SDS011;13500;52.514;13.462;2022-07-23T07:32:02;5.17;;;3.13;;
8654;SDS011;13500;52.514;13.462;2022-07-23T07:34:31;5.43;;;3.50;;
8654;SDS011;13500;52.514;13.462;2022-07-23T07:37:01;5.30;;;3.37;;
8654;SDS011;13500;52.514;13.462;2022-07-23T07:39:30;4.30;;;2.90;;
8654;SDS011;13500;52.514;13.462;2022-07-23T07:41:58;5.27;;;3.13;;
8654;SDS011;13500;52.514;13.462;2022-07-23T07:44:26;6.03;;;3.17;;
8654;SDS011;13500;52.514;13.462;2022-07-23T07:46:54;6.80;;;3.83;;
8654;SDS011;13500;52.514;13.462;2022-07-23T07:49:23;3.97;;;3.00;;
8654;SDS011;13500;52.514;13.462;2022-07-23T07:51:55;4.03;;;3.10;;
8654;SDS011;13500;52.514;13.462;2022-07-23T07:54:25;4.57;;;3.07;;
8654;SDS011;13500;52.514;13.462;2022-07-23T07:56:54;5.87;;;3.37;;
8654;SDS011;13500;52.514;13.462;2022-07-23T07:59:22;4.33;;;3.40;;
8654;SDS011;13500;52.514;13.462;2022-07-23T08:01:50;4.80;;;3.47;;
8654;SDS011;13500;52.514;13.462;2022-07-23T08:04:19;6.03;;;3.60;;
8654;SDS011;13500;52.514;13.462;2022-07-23T08:06:47;6.30;;;3.03;;
8654;SDS011;13500;52.514;13.462;2022-07-23T08:09:16;4.83;;;3.50;;
8654;SDS011;13500;52.514;13.462;2022-07-23T08:11:45;5.23;;;3.00;;
8654;SDS011;13500;52.514;13.462;2022-07-23T08:14:14;3.63;;;2.50;;
8654;SDS011;13500;52.514;13.462;2022-07-23T08:16:42;4.23;;;2.50;;
8654;SDS011;13500;52.514;13.462;2022-07-23T08:19:30;2.70;;;2.50;;
8654;SDS011;13500;52.514;13.462;2022-07-23T08:21:59;2.63;;;2.40;;
8654;SDS011;13500;52.514;13.462;2022-07-23T08:24:27;3.83;;;2.43;;
8654;SDS011;13500;52.514;13.462;2022-07-23T08:26:57;4.40;;;2.60;;
8654;SDS011;13500;52.514;13.462;2022-07-23T08:29:25;2.40;;;2.10;;
8654;SDS011;13500;52.514;13.462;2022-07-23T08:31:53;4.10;;;2.50;;
8654;SDS011;13500;52.514;13.462;2022-07-23T08:34:22;2.20;;;2.00;;
8654;SDS011;13500;52.514;13.462;2022-07-23T08:36:50;3.50;;;2.17;;
8654;SDS011;13500;52.514;13.462;2022-07-23T08:39:18;2.47;;;2.17;;
8654;SDS011;13500;52.514;13.462;2022-07-23T08:41:47;3.63;;;2.10;;
8654;SDS011;13500;52.514;13.462;2022-07-23T08:44:17;2.40;;;2.00;;
8654;SDS011;13500;52.514;13.462;2022-07-23T08:46:45;2.67;;;1.90;;
8654;SDS011;13500;52.514;13.462;2022-07-23T08:49:14;3.90;;;2.07;;
8654;SDS011;13500;52.514;13.462;2022-07-23T08:51:43;2.13;;;1.90;;
8654;SDS011;13500;52.514;13.462;2022-07-23T08:54:11;2.67;;;2.10;;
8654;SDS011;13500;52.514;13.462;2022-07-23T08:56:40;3.23;;;2.17;;
8654;SDS011;13500;52.514;13.462;2022-07-23T08:59:08;3.47;;;2.00;;
8654;SDS011;13500;52.514;13.462;2022-07-23T09:01:41;2.50;;;1.90;;
8654;SDS011;13500;52.514;13.462;2022-07-23T09:04:10;1.97;;;1.77;;
8654;SDS011;13500;52.514;13.462;2022-07-23T09:06:39;2.20;;;1.90;;
8654;SDS011;13500;52.514;13.462;2022-07-23T09:09:16;3.80;;;2.40;;
8654;SDS011;13500;52.514;13.462;2022-07-23T09:11:45;2.07;;;1.80;;
8654;SDS011;13500;52.514;13.462;2022-07-23T09:14:14;2.30;;;2.00;;
8654;SDS011;13500;52.514;13.462;2022-07-23T09:16:43;2.97;;;2.00;;
8654;SDS011;13500;52.514;13.462;2022-07-23T09:19:12;2.63;;;2.20;;
8654;SDS011;13500;52.514;13.462;2022-07-23T09:21:41;2.77;;;1.87;;
8654;SDS011;13500;52.514;13.462;2022-07-23T09:24:09;2.13;;;1.93;;
8654;SDS011;13500;52.514;13.462;2022-07-23T09:26:39;3.90;;;2.10;;
8654;SDS011;13500;52.514;13.462;2022-07-23T09:29:09;2.33;;;1.60;;
8654;SDS011;13500;52.514;13.462;2022-07-23T09:31:45;2.40;;;2.00;;
8654;SDS011;13500;52.514;13.462;2022-07-23T09:34:16;2.50;;;1.90;;
8654;SDS011;13500;52.514;13.462;2022-07-23T09:36:50;3.03;;;2.30;;
8654;SDS011;13500;52.514;13.462;2022-07-23T09:39:27;3.03;;;2.23;;
8654;SDS011;13500;52.514;13.462;2022-07-23T09:41:57;3.80;;;2.20;;
8654;SDS011;13500;52.514;13.462;2022-07-23T09:44:26;3.60;;;2.10;;
8654;SDS011;13500;52.514;13.462;2022-07-23T09:46:58;2.93;;;2.20;;
8654;SDS011;13500;52.514;13.462;2022-07-23T09:49:28;4.47;;;2.57;;
8654;SDS011;13500;52.514;13.462;2022-07-23T09:51:57;3.97;;;2.53;;
8654;SDS011;13500;52.514;13.462;2022-07-23T09:54:29;4.77;;;3.40;;
8654;SDS011;13500;52.514;13.462;2022-07-23T09:57:02;4.53;;;2.60;;
8654;SDS011;13500;52.514;13.462;2022-07-23T09:59:35;2.70;;;2.23;;
8654;SDS011;13500;52.514;13.462;2022-07-23T10:02:07;4.70;;;2.40;;
8654;SDS011;13500;52.514;13.462;2022-07-23T10:04:53;3.23;;;2.60;;
8654;SDS011;13500;52.514;13.462;2022-07-23T10:07:31;3.00;;;2.30;;
8654;SDS011;13500;52.514;13.462;2022-07-23T10:10:20;4.00;;;2.80;;
8654;SDS011;13500;52.514;13.462;2022-07-23T10:13:08;4.20;;;2.97;;
8654;SDS011;13500;52.514;13.462;2022-07-23T10:15:54;4.07;;;2.40;;
8654;SDS011;13500;52.514;13.462;2022-07-23T10:18:24;4.03;;;2.70;;
8654;SDS011;13500;52.514;13.462;2022-07-23T10:20:53;4.60;;;2.70;;
8654;SDS011;13500;52.514;13.462;2022-07-23T10:23:22;3.40;;;2.60;;
8654;SDS011;13500;52.514;13.462;2022-07-23T10:25:58;4.13;;;2.40;;
8654;SDS011;13500;52.514;13.462;2022-07-23T10:28:42;4.07;;;2.47;;
8654;SDS011;13500;52.514;13.462;2022-07-23T10:31:28;3.90;;;2.40;;
8654;SDS011;13500;52.514;13.462;2022-07-23T10:34:28;3.03;;;2.40;;
8654;SDS011;13500;52.514;13.462;2022-07-23T10:37:06;3.40;;;2.27;;
8654;SDS011;13500;52.514;13.462;2022-07-23T10:39:47;4.23;;;2.27;;
8654;SDS011;13500;52.514;13.462;2022-07-23T10:42:36;5.87;;;2.17;;
8654;SDS011;13500;52.514;13.462;2022-07-23T10:48:11;2.00;;;1.90;;
8654;SDS011;13500;52.514;13.462;2022-07-23T10:50:43;3.67;;;2.43;;
8654;SDS011;13500;52.514;13.462;2022-07-23T10:59:17;3.83;;;2.80;;
8654;SDS011;13500;52.514;13.462;2022-07-23T11:01:46;2.73;;;2.10;;
8654;SDS011;13500;52.514;13.462;2022-07-23T11:04:14;4.13;;;2.30;;
8654;SDS011;13500;52.514;13.462;2022-07-23T11:09:39;3.13;;;1.93;;
8654;SDS011;13500;52.514;13.462;2022-07-23T11:15:05;3.40;;;2.40;;
8654;SDS011;13500;52.514;13.462;2022-07-23T11:17:37;2.23;;;2.03;;
8654;SDS011;13500;52.514;13.462;2022-07-23T11:20:13;3.80;;;2.67;;
8654;SDS011;13500;52.514;13.462;2022-07-23T11:22:49;3.70;;;2.17;;
8654;SDS011;13500;52.514;13.462;2022-07-23T11:25:29;2.90;;;2.30;;
8654;SDS011;13500;52.514;13.462;2022-07-23T11:28:10;2.80;;;2.30;;
8654;SDS011;13500;52.514;13.462;2022-07-23T11:30:42;2.40;;;2.20;;
8654;SDS011;13500;52.514;13.462;2022-07-23T11:33:18;2.47;;;2.10;;
8654;SDS011;13500;52.514;13.462;2022-07-23T11:35:59;2.37;;;2.13;;
8654;SDS011;13500;52.514;13.462;2022-07-23T11:38:31;3.80;;;2.40;;
8654;SDS011;13500;52.514;13.462;2022-07-23T11:41:00;5.23;;;2.43;;
8654;SDS011;13500;52.514;13.462;2022-07-23T11:43:28;3.07;;;2.50;;
8654;SDS011;13500;52.514;13.462;2022-07-23T11:45:57;2.50;;;2.30;;
8654;SDS011;13500;52.514;13.462;2022-07-23T11:48:27;4.10;;;2.53;;
8654;SDS011;13500;52.514;13.462;2022-07-23T11:51:02;3.03;;;2.67;;
8654;SDS011;13500;52.514;13.462;2022-07-23T11:53:32;3.33;;;2.40;;
8654;SDS011;13500;52.514;13.462;2022-07-23T11:56:04;3.97;;;2.70;;
8654;SDS011;13500;52.514;13.462;2022-07-23T11:58:34;2.57;;;2.33;;
8654;SDS011;13500;52.514;13.462;2022-07-23T12:01:03;3.43;;;2.53;;
8654;SDS011;13500;52.514;13.462;2022-07-23T12:03:32;4.47;;;2.83;;
8654;SDS011;13500;52.514;13.462;2022-07-23T12:06:01;3.07;;;2.50;;
8654;SDS011;13500;52.514;13.462;2022-07-23T12:08:29;2.50;;;2.30;;
8654;SDS011;13500;52.514;13.462;2022-07-23T12:10:59;2.77;;;2.10;;
8654;SDS011;13500;52.514;13.462;2022-07-23T12:13:27;2.57;;;2.33;;
8654;SDS011;13500;52.514;13.462;2022-07-23T12:15:56;2.80;;;2.20;;
8654;SDS011;13500;52.514;13.462;2022-07-23T12:18:26;2.30;;;2.10;;
8654;SDS011;13500;52.514;13.462;2022-07-23T12:20:55;2.90;;;2.30;;
8654;SDS011;13500;52.514;13.462;2022-07-23T12:23:27;4.43;;;2.60;;
8654;SDS011;13500;52.514;13.462;2022-07-23T12:25:55;3.33;;;2.80;;
8654;SDS011;13500;52.514;13.462;2022-07-23T12:28:31;3.13;;;2.83;;
8654;SDS011;13500;52.514;13.462;2022-07-23T12:31:00;3.90;;;2.63;;
8654;SDS011;13500;52.514;13.462;2022-07-23T12:33:29;2.90;;;2.40;;
8654;SDS011;13500;52.514;13.462;2022-07-23T12:35:59;2.57;;;2.27;;
8654;SDS011;13500;52.514;13.462;2022-07-23T12:38:36;4.40;;;2.57;;
8654;SDS011;13500;52.514;13.462;2022-07-23T12:41:07;4.90;;;3.10;;
8654;SDS011;13500;52.514;13.462;2022-07-23T12:43:37;4.57;;;2.60;;
8654;SDS011;13500;52.514;13.462;2022-07-23T12:46:09;4.13;;;2.73;;
8654;SDS011;13500;52.514;13.462;2022-07-23T12:48:38;3.03;;;2.37;;
8654;SDS011;13500;52.514;13.462;2022-07-23T12:51:18;2.83;;;2.53;;
8654;SDS011;13500;52.514;13.462;2022-07-23T12:53:48;4.57;;;2.93;;
8654;SDS011;13500;52.514;13.462;2022-07-23T12:56:20;2.60;;;2.10;;
8654;SDS011;13500;52.514;13.462;2022-07-23T12:58:54;3.67;;;2.60;;
8654;SDS011;13500;52.514;13.462;2022-07-23T13:01:27;3.13;;;2.60;;
8654;SDS011;13500;52.514;13.462;2022-07-23T13:04:01;2.43;;;2.23;;
8654;SDS011;13500;52.514;13.462;2022-07-23T13:06:38;4.30;;;2.70;;
8654;SDS011;13500;52.514;13.462;2022-07-23T13:09:09;2.70;;;2.50;;
8654;SDS011;13500;52.514;13.462;2022-07-23T13:11:40;4.00;;;2.63;;
8654;SDS011;13500;52.514;13.462;2022-07-23T13:14:09;2.67;;;2.47;;
8654;SDS011;13500;52.514;13.462;2022-07-23T13:16:38;4.07;;;2.57;;
8654;SDS011;13500;52.514;13.462;2022-07-23T13:19:07;3.27;;;2.90;;
8654;SDS011;13500;52.514;13.462;2022-07-23T13:21:38;2.97;;;2.77;;
8654;SDS011;13500;52.514;13.462;2022-07-23T13:24:07;3.27;;;2.90;;
8654;SDS011;13500;52.514;13.462;2022-07-23T13:26:38;3.70;;;3.07;;
8654;SDS011;13500;52.514;13.462;2022-07-23T13:29:08;3.37;;;2.90;;
8654;SDS011;13500;52.514;13.462;2022-07-23T13:31:37;3.70;;;2.80;;
8654;SDS011;13500;52.514;13.462;2022-07-23T13:34:06;3.60;;;2.80;;
8654;SDS011;13500;52.514;13.462;2022-07-23T13:36:34;5.47;;;3.00;;
8654;SDS011;13500;52.514;13.462;2022-07-23T13:39:03;2.93;;;2.67;;
8654;SDS011;13500;52.514;13.462;2022-07-23T13:41:35;5.03;;;3.03;;
8654;SDS011;13500;52.514;13.462;2022-07-23T13:44:05;3.87;;;2.67;;
8654;SDS011;13500;52.514;13.462;2022-07-23T13:46:34;5.13;;;2.80;;
8654;SDS011;13500;52.514;13.462;2022-07-23T13:49:02;2.53;;;2.33;;
8654;SDS011;13500;52.514;13.462;2022-07-23T13:51:34;4.17;;;2.50;;
8654;SDS011;13500;52.514;13.462;2022-07-23T13:54:04;2.63;;;2.43;;
8654;SDS011;13500;52.514;13.462;2022-07-23T13:56:34;2.80;;;2.47;;
8654;SDS011;13500;52.514;13.462;2022-07-23T13:59:03;2.80;;;2.50;;
8654;SDS011;13500;52.514;13.462;2022-07-23T14:01:34;2.67;;;2.40;;
8654;SDS011;13500;52.514;13.462;2022-07-23T14:04:22;3.20;;;2.40;;
8654;SDS011;13500;52.514;13.462;2022-07-23T14:06:50;2.07;;;1.97;;
8654;SDS011;13500;52.514;13.462;2022-07-23T14:09:20;2.53;;;2.27;;
8654;SDS011;13500;52.514;13.462;2022-07-23T14:11:51;2.70;;;2.23;;
8654;SDS011;13500;52.514;13.462;2022-07-23T14:14:19;2.50;;;2.30;;
8654;SDS011;13500;52.514;13.462;2022-07-23T14:16:49;2.43;;;2.23;;
8654;SDS011;13500;52.514;13.462;2022-07-23T14:19:17;2.83;;;2.60;;
8654;SDS011;13500;52.514;13.462;2022-07-23T14:21:46;2.60;;;2.40;;
8654;SDS011;13500;52.514;13.462;2022-07-23T14:24:15;3.33;;;2.40;;
8654;SDS011;13500;52.514;13.462;2022-07-23T14:26:44;3.17;;;2.40;;
8654;SDS011;13500;52.514;13.462;2022-07-23T14:29:12;3.83;;;2.80;;
8654;SDS011;13500;52.514;13.462;2022-07-23T14:31:41;2.13;;;2.00;;
8654;SDS011;13500;52.514;13.462;2022-07-23T14:34:10;2.30;;;2.03;;
8654;SDS011;13500;52.514;13.462;2022-07-23T14:36:39;2.97;;;2.33;;
8654;SDS011;13500;52.514;13.462;2022-07-23T14:39:08;2.53;;;2.33;;
8654;SDS011;13500;52.514;13.462;2022-07-23T14:41:36;2.67;;;2.20;;
8654;SDS011;13500;52.514;13.462;2022-07-23T14:44:04;3.47;;;1.97;;
8654;SDS011;13500;52.514;13.462;2022-07-23T14:46:35;2.90;;;1.77;;
8654;SDS011;13500;52.514;13.462;2022-07-23T14:49:04;2.33;;;1.80;;
8654;SDS011;13500;52.514;13.462;2022-07-23T14:51:35;2.10;;;1.87;;
8654;SDS011;13500;52.514;13.462;2022-07-23T14:54:04;3.90;;;2.10;;
8654;SDS011;13500;52.514;13.462;2022-07-23T14:56:33;2.50;;;1.80;;
8654;SDS011;13500;52.514;13.462;2022-07-23T14:59:02;2.07;;;1.87;;
8654;SDS011;13500;52.514;13.462;2022-07-23T15:01:31;4.07;;;2.00;;
8654;SDS011;13500;52.514;13.462;2022-07-23T15:04:00;3.17;;;1.90;;
8654;SDS011;13500;52.514;13.462;2022-07-23T15:06:50;2.07;;;1.80;;
8654;SDS011;13500;52.514;13.462;2022-07-23T15:09:18;2.73;;;2.00;;
8654;SDS011;13500;52.514;13.462;2022-07-23T15:11:46;2.10;;;1.90;;
8654;SDS011;13500;52.514;13.462;2022-07-23T15:14:15;4.60;;;1.80;;
8654;SDS011;13500;52.514;13.462;2022-07-23T15:16:54;2.00;;;1.90;;
8654;SDS011;13500;52.514;13.462;2022-07-23T15:19:23;2.63;;;2.10;;
8654;SDS011;13500;52.514;13.462;2022-07-23T15:21:52;2.83;;;1.73;;